sensor_id;sensor_type;location;lat;lon;timestamp;pressure;altitude;pressure_sealevel;temperature;humidity
56668;BME280;42542;48.360;10.958;2022-11-14T00:02:00;96196.50;;;4.29;100.00
56668;BME280;42542;48.360;10.958;2022-11-14T00:05:21;96185.19;;;4.27;100.00
56668;BME280;42542;48.360;10.958;2022-11-14T00:08:41;96199.97;;;4.30;100.00
56668;BME280;42542;48.360;10.958;2022-11-14T00:12:01;96200.81;;;4.30;100.00
56668;BME280;42542;48.360;10.958;2022-11-14T00:15:21;96195.78;;;4.27;100.00
56668;BME280;42542;48.360;10.958;2022-11-14T00:18:41;96205.00;;;4.33;100.00
56668;BME280;42542;48.360;10.958;2022-11-14T00:22:01;96206.00;;;4.32;100.00
56668;BME280;42542;48.360;10.958;2022-11-14T00:25:21;96209.47;;;4.32;100.00
56668;BME280;42542;48.360;10.958;2022-11-14T00:28:41;96213.66;;;4.35;100.00
56668;BME280;42542;48.360;10.958;2022-11-14T00:32:02;96207.66;;;4.33;100.00
56668;BME280;42542;48.360;10.958;2022-11-14T00:35:22;96200.56;;;4.33;100.00
56668;BME280;42542;48.360;10.958;2022-11-14T00:38:42;96192.78;;;4.32;100.00
56668;BME280;42542;48.360;10.958;2022-11-14T00:42:02;96185.44;;;4.24;100.00
56668;BME280;42542;48.360;10.958;2022-11-14T00:45:23;96193.72;;;4.31;100.00
56668;BME280;42542;48.360;10.958;2022-11-14T00:48:43;96203.34;;;4.32;100.00
56668;BME280;42542;48.360;10.958;2022-11-14T00:52:04;96203.09;;;4.35;100.00
56668;BME280;42542;48.360;10.958;2022-11-14T00:55:24;96193.56;;;4.32;100.00
56668;BME280;42542;48.360;10.958;2022-11-14T00:58:44;96199.72;;;4.33;100.00
56668;BME280;42542;48.360;10.958;2022-11-14T01:02:04;96188.16;;;4.34;100.00
56668;BME280;42542;48.360;10.958;2022-11-14T01:05:25;96189.00;;;4.35;100.00
56668;BME280;42542;48.360;10.958;2022-11-14T01:08:45;96183.59;;;4.36;100.00
56668;BME280;42542;48.360;10.958;2022-11-14T01:12:06;96169.41;;;4.37;100.00
56668;BME280;42542;48.360;10.958;2022-11-14T01:15:26;96162.31;;;4.38;100.00
56668;BME280;42542;48.360;10.958;2022-11-14T01:18:46;96138.16;;;4.31;100.00
56668;BME280;42542;48.360;10.958;2022-11-14T01:22:06;96136.22;;;4.33;100.00
56668;BME280;42542;48.360;10.958;2022-11-14T01:25:26;96121.31;;;4.32;100.00
56668;BME280;42542;48.360;10.958;2022-11-14T01:28:47;96136.09;;;4.35;100.00
56668;BME280;42542;48.360;10.958;2022-11-14T01:32:07;96131.53;;;4.37;100.00
56668;BME280;42542;48.360;10.958;2022-11-14T01:35:27;96128.75;;;4.38;100.00
56668;BME280;42542;48.360;10.958;2022-11-14T01:38:52;96139.84;;;4.32;100.00
56668;BME280;42542;48.360;10.958;2022-11-14T01:42:12;96150.56;;;4.30;100.00
56668;BME280;42542;48.360;10.958;2022-11-14T01:52:33;96175.81;;;4.23;100.00
56668;BME280;42542;48.360;10.958;2022-11-14T01:55:57;96183.75;;;4.23;100.00
56668;BME280;42542;48.360;10.958;2022-11-14T01:59:21;96199.75;;;4.22;100.00
56668;BME280;42542;48.360;10.958;2022-11-14T02:02:42;96195.53;;;4.19;100.00
56668;BME280;42542;48.360;10.958;2022-11-14T02:06:03;96189.19;;;4.22;100.00
56668;BME280;42542;48.360;10.958;2022-11-14T02:09:26;96177.50;;;4.24;100.00
56668;BME280;42542;48.360;10.958;2022-11-14T02:12:48;96179.06;;;4.27;100.00
56668;BME280;42542;48.360;10.958;2022-11-14T02:16:09;96171.13;;;4.27;100.00
56668;BME280;42542;48.360;10.958;2022-11-14T02:19:50;96160.19;;;4.31;100.00
56668;BME280;42542;48.360;10.958;2022-11-14T02:23:11;96154.03;;;4.31;100.00
56668;BME280;42542;48.360;10.958;2022-11-14T02:26:32;96157.25;;;4.35;100.00
56668;BME280;42542;48.360;10.958;2022-11-14T02:30:04;96144.31;;;4.31;100.00
56668;BME280;42542;48.360;10.958;2022-11-14T02:33:24;96150.44;;;4.32;100.00
56668;BME280;42542;48.360;10.958;2022-11-14T02:36:45;96164.47;;;4.32;100.00
56668;BME280;42542;48.360;10.958;2022-11-14T02:40:06;96169.78;;;4.32;100.00
56668;BME280;42542;48.360;10.958;2022-11-14T02:43:26;96166.53;;;4.29;100.00
56668;BME280;42542;48.360;10.958;2022-11-14T02:46:46;96169.78;;;4.32;100.00
56668;BME280;42542;48.360;10.958;2022-11-14T02:50:07;96171.34;;;4.35;100.00
56668;BME280;42542;48.360;10.958;2022-11-14T02:53:27;96181.06;;;4.35;100.00
56668;BME280;42542;48.360;10.958;2022-11-14T02:56:47;96174.94;;;4.34;100.00
56668;BME280;42542;48.360;10.958;2022-11-14T03:00:08;96168.56;;;4.37;100.00
56668;BME280;42542;48.360;10.958;2022-11-14T03:03:34;96159.78;;;4.36;100.00
56668;BME280;42542;48.360;10.958;2022-11-14T03:06:54;96141.25;;;4.36;100.00
56668;BME280;42542;48.360;10.958;2022-11-14T03:10:14;96150.88;;;4.37;100.00
56668;BME280;42542;48.360;10.958;2022-11-14T03:13:34;96151.72;;;4.38;100.00
56668;BME280;42542;48.360;10.958;2022-11-14T03:16:55;96119.75;;;4.29;100.00
56668;BME280;42542;48.360;10.958;2022-11-14T03:20:16;96104.84;;;4.28;100.00
56668;BME280;42542;48.360;10.958;2022-11-14T03:23:36;96100.00;;;4.33;100.00
56668;BME280;42542;48.360;10.958;2022-11-14T03:26:56;96097.63;;;4.30;100.00
56668;BME280;42542;48.360;10.958;2022-11-14T03:30:17;96099.31;;;4.31;100.00
56668;BME280;42542;48.360;10.958;2022-11-14T03:33:37;96106.09;;;4.24;100.00
56668;BME280;42542;48.360;10.958;2022-11-14T03:36:58;96110.13;;;4.28;100.00
56668;BME280;42542;48.360;10.958;2022-11-14T03:40:19;96108.09;;;4.32;100.00
56668;BME280;42542;48.360;10.958;2022-11-14T03:43:39;96100.00;;;4.33;100.00
56668;BME280;42542;48.360;10.958;2022-11-14T03:46:59;96088.59;;;4.33;100.00
56668;BME280;42542;48.360;10.958;2022-11-14T03:50:19;96081.50;;;4.33;100.00
56668;BME280;42542;48.360;10.958;2022-11-14T03:53:39;96068.41;;;4.32;100.00
56668;BME280;42542;48.360;10.958;2022-11-14T03:56:59;96074.91;;;4.28;100.00
56668;BME280;42542;48.360;10.958;2022-11-14T04:00:20;96088.00;;;4.29;100.00
56668;BME280;42542;48.360;10.958;2022-11-14T04:03:40;96102.09;;;4.30;100.00
56668;BME280;42542;48.360;10.958;2022-11-14T04:07:00;96113.50;;;4.30;100.00
56668;BME280;42542;48.360;10.958;2022-11-14T04:10:20;96110.03;;;4.30;100.00
56668;BME280;42542;48.360;10.958;2022-11-14T04:13:40;96113.50;;;4.30;100.00
56668;BME280;42542;48.360;10.958;2022-11-14T04:17:00;96112.56;;;4.31;100.00
56668;BME280;42542;48.360;10.958;2022-11-14T04:20:20;96101.38;;;4.28;100.00
56668;BME280;42542;48.360;10.958;2022-11-14T04:23:40;96108.22;;;4.30;100.00
56668;BME280;42542;48.360;10.958;2022-11-14T04:27:00;96101.13;;;4.31;100.00
56668;BME280;42542;48.360;10.958;2022-11-14T04:30:21;96103.03;;;4.29;100.00
56668;BME280;42542;48.360;10.958;2022-11-14T04:33:41;96097.88;;;4.27;100.00
56668;BME280;42542;48.360;10.958;2022-11-14T04:37:01;96085.59;;;4.26;100.00
56668;BME280;42542;48.360;10.958;2022-11-14T04:40:22;96091.63;;;4.28;100.00
56668;BME280;42542;48.360;10.958;2022-11-14T04:43:42;96091.75;;;4.27;100.00
56668;BME280;42542;48.360;10.958;2022-11-14T04:47:09;96113.75;;;4.27;100.00
56668;BME280;42542;48.360;10.958;2022-11-14T04:50:29;96104.91;;;4.17;100.00
56668;BME280;42542;48.360;10.958;2022-11-14T04:53:49;96122.69;;;4.15;100.00
56668;BME280;42542;48.360;10.958;2022-11-14T04:57:09;96103.84;;;4.09;100.00
56668;BME280;42542;48.360;10.958;2022-11-14T05:00:30;96094.63;;;4.03;100.00
56668;BME280;42542;48.360;10.958;2022-11-14T05:03:50;96092.53;;;4.07;100.00
56668;BME280;42542;48.360;10.958;2022-11-14T05:07:10;96102.41;;;4.05;100.00
56668;BME280;42542;48.360;10.958;2022-11-14T05:10:30;96078.03;;;4.01;100.00
56668;BME280;42542;48.360;10.958;2022-11-14T05:13:51;96088.94;;;4.08;100.00
56668;BME280;42542;48.360;10.958;2022-11-14T05:17:12;96054.66;;;4.06;100.00
56668;BME280;42542;48.360;10.958;2022-11-14T05:20:32;96087.84;;;4.10;100.00
56668;BME280;42542;48.360;10.958;2022-11-14T05:23:52;96081.97;;;4.07;100.00
56668;BME280;42542;48.360;10.958;2022-11-14T05:27:12;96094.09;;;4.09;100.00
56668;BME280;42542;48.360;10.958;2022-11-14T05:30:32;96111.66;;;4.10;100.00
56668;BME280;42542;48.360;10.958;2022-11-14T05:33:52;96122.25;;;4.10;100.00
56668;BME280;42542;48.360;10.958;2022-11-14T05:37:13;96093.25;;;4.09;100.00
56668;BME280;42542;48.360;10.958;2022-11-14T05:40:33;96091.59;;;4.08;100.00
56668;BME280;42542;48.360;10.958;2022-11-14T05:43:53;96081.97;;;4.07;100.00
56668;BME280;42542;48.360;10.958;2022-11-14T05:47:14;96077.41;;;3.98;100.00
56668;BME280;42542;48.360;10.958;2022-11-14T05:50:35;96093.88;;;4.01;100.00
56668;BME280;42542;48.360;10.958;2022-11-14T05:53:55;96099.91;;;4.03;100.00
56668;BME280;42542;48.360;10.958;2022-11-14T05:57:15;96092.22;;;4.00;100.00
56668;BME280;42542;48.360;10.958;2022-11-14T06:00:35;96092.31;;;3.99;100.00
56668;BME280;42542;48.360;10.958;2022-11-14T06:04:07;96098.47;;;3.99;100.00
56668;BME280;42542;48.360;10.958;2022-11-14T06:07:28;96103.16;;;3.96;100.00
56668;BME280;42542;48.360;10.958;2022-11-14T06:10:48;96106.78;;;3.95;100.00
56668;BME280;42542;48.360;10.958;2022-11-14T06:14:08;96111.22;;;3.94;100.00
56668;BME280;42542;48.360;10.958;2022-11-14T06:17:30;96119.16;;;3.94;100.00
56668;BME280;42542;48.360;10.958;2022-11-14T06:20:50;96143.78;;;3.95;100.00
56668;BME280;42542;48.360;10.958;2022-11-14T06:24:10;96157.97;;;3.93;100.00
56668;BME280;42542;48.360;10.958;2022-11-14T06:27:31;96169.75;;;3.89;100.00
56668;BME280;42542;48.360;10.958;2022-11-14T06:30:55;96164.38;;;3.80;100.00
56668;BME280;42542;48.360;10.958;2022-11-14T06:34:16;96159.69;;;3.72;100.00
56668;BME280;42542;48.360;10.958;2022-11-14T06:37:36;96166.41;;;3.65;100.00
56668;BME280;42542;48.360;10.958;2022-11-14T06:41:16;96167.97;;;3.57;100.00
56668;BME280;42542;48.360;10.958;2022-11-14T06:44:36;96158.84;;;3.49;100.00
56668;BME280;42542;48.360;10.958;2022-11-14T06:47:59;96161.25;;;3.41;100.00
56668;BME280;42542;48.360;10.958;2022-11-14T06:51:19;96159.56;;;3.40;100.00
56668;BME280;42542;48.360;10.958;2022-11-14T06:54:39;96157.19;;;3.37;100.00
56668;BME280;42542;48.360;10.958;2022-11-14T06:57:59;96142.50;;;3.33;100.00
56668;BME280;42542;48.360;10.958;2022-11-14T07:01:22;96148.28;;;3.38;100.00
56668;BME280;42542;48.360;10.958;2022-11-14T07:04:42;96155.13;;;3.41;100.00
56668;BME280;42542;48.360;10.958;2022-11-14T07:08:03;96167.00;;;3.35;100.00
56668;BME280;42542;48.360;10.958;2022-11-14T07:11:25;96169.66;;;3.35;100.00
56668;BME280;42542;48.360;10.958;2022-11-14T07:14:46;96178.91;;;3.41;100.00
56668;BME280;42542;48.360;10.958;2022-11-14T07:18:06;96166.28;;;3.33;100.00
56668;BME280;42542;48.360;10.958;2022-11-14T07:21:27;96162.94;;;3.42;100.00
56668;BME280;42542;48.360;10.958;2022-11-14T07:24:48;96161.00;;;3.33;100.00
56668;BME280;42542;48.360;10.958;2022-11-14T07:28:08;96163.06;;;3.30;100.00
56668;BME280;42542;48.360;10.958;2022-11-14T07:31:28;96158.84;;;3.27;100.00
56668;BME280;42542;48.360;10.958;2022-11-14T07:34:48;96150.91;;;3.27;100.00
56668;BME280;42542;48.360;10.958;2022-11-14T07:38:08;96128.34;;;3.23;100.00
56668;BME280;42542;48.360;10.958;2022-11-14T07:41:29;96139.75;;;3.35;100.00
56668;BME280;42542;48.360;10.958;2022-11-14T07:44:49;96136.63;;;3.41;100.00
56668;BME280;42542;48.360;10.958;2022-11-14T07:48:09;96133.25;;;3.39;100.00
56668;BME280;42542;48.360;10.958;2022-11-14T07:51:29;96125.22;;;3.40;100.00
56668;BME280;42542;48.360;10.958;2022-11-14T07:54:50;96127.75;;;3.42;100.00
56668;BME280;42542;48.360;10.958;2022-11-14T07:58:10;96119.31;;;3.48;100.00
56668;BME280;42542;48.360;10.958;2022-11-14T08:01:30;96118.16;;;3.52;100.00
56668;BME280;42542;48.360;10.958;2022-11-14T08:04:51;96122.22;;;3.56;100.00
56668;BME280;42542;48.360;10.958;2022-11-14T08:08:11;96128.81;;;3.62;100.00
56668;BME280;42542;48.360;10.958;2022-11-14T08:11:31;96127.72;;;3.64;100.00
56668;BME280;42542;48.360;10.958;2022-11-14T08:15:08;96118.72;;;3.67;100.00
56668;BME280;42542;48.360;10.958;2022-11-14T08:18:28;96120.38;;;3.68;100.00
56668;BME280;42542;48.360;10.958;2022-11-14T08:21:49;96113.09;;;3.60;100.00
56668;BME280;42542;48.360;10.958;2022-11-14T08:25:09;96125.22;;;3.74;100.00
56668;BME280;42542;48.360;10.958;2022-11-14T08:28:30;96126.63;;;3.78;100.00
56668;BME280;42542;48.360;10.958;2022-11-14T08:31:50;96124.59;;;3.81;100.00
56668;BME280;42542;48.360;10.958;2022-11-14T08:35:19;96136.22;;;3.90;100.00
56668;BME280;42542;48.360;10.958;2022-11-14T08:38:39;96143.91;;;3.93;100.00
56668;BME280;42542;48.360;10.958;2022-11-14T08:41:59;96150.63;;;3.97;100.00
56668;BME280;42542;48.360;10.958;2022-11-14T08:45:19;96154.84;;;4.00;100.00
56668;BME280;42542;48.360;10.958;2022-11-14T08:48:39;96169.28;;;3.96;100.00
56668;BME280;42542;48.360;10.958;2022-11-14T08:52:00;96186.56;;;4.00;100.00
56668;BME280;42542;48.360;10.958;2022-11-14T08:55:20;96173.00;;;3.93;100.00
56668;BME280;42542;48.360;10.958;2022-11-14T08:58:40;96167.94;;;3.90;100.00
56668;BME280;42542;48.360;10.958;2022-11-14T09:02:00;96161.47;;;3.94;100.00
56668;BME280;42542;48.360;10.958;2022-11-14T09:05:20;96170.69;;;4.00;100.00
56668;BME280;42542;48.360;10.958;2022-11-14T09:08:41;96160.34;;;4.08;100.00
56668;BME280;42542;48.360;10.958;2022-11-14T09:12:04;96165.13;;;4.14;100.00
56668;BME280;42542;48.360;10.958;2022-11-14T09:15:28;96163.56;;;4.22;100.00
56668;BME280;42542;48.360;10.958;2022-11-14T09:18:49;96156.91;;;4.28;100.00
56668;BME280;42542;48.360;10.958;2022-11-14T09:22:09;96163.50;;;4.33;100.00
56668;BME280;42542;48.360;10.958;2022-11-14T09:25:29;96162.66;;;4.44;100.00
56668;BME280;42542;48.360;10.958;2022-11-14T09:28:50;96165.63;;;4.51;100.00
56668;BME280;42542;48.360;10.958;2022-11-14T09:32:10;96156.47;;;4.55;100.00
56668;BME280;42542;48.360;10.958;2022-11-14T09:35:31;96158.75;;;4.59;100.00
56668;BME280;42542;48.360;10.958;2022-11-14T09:38:54;96165.84;;;4.59;100.00
56668;BME280;42542;48.360;10.958;2022-11-14T09:45:53;96154.09;;;4.72;100.00
56668;BME280;42542;48.360;10.958;2022-11-14T09:49:37;96157.91;;;4.80;100.00
56668;BME280;42542;48.360;10.958;2022-11-14T09:53:06;96163.66;;;4.85;100.00
56668;BME280;42542;48.360;10.958;2022-11-14T09:56:27;96174.84;;;4.88;100.00
56668;BME280;42542;48.360;10.958;2022-11-14T09:59:48;96180.59;;;4.93;100.00
56668;BME280;42542;48.360;10.958;2022-11-14T10:07:03;96184.84;;;5.05;100.00
56668;BME280;42542;48.360;10.958;2022-11-14T10:14:01;96189.50;;;5.13;100.00
56668;BME280;42542;48.360;10.958;2022-11-14T10:17:48;96174.22;;;5.17;100.00
56668;BME280;42542;48.360;10.958;2022-11-14T10:21:34;96205.81;;;5.29;100.00
56668;BME280;42542;48.360;10.958;2022-11-14T10:25:12;96215.03;;;5.35;100.00
56668;BME280;42542;48.360;10.958;2022-11-14T10:28:45;96216.84;;;5.34;100.00
56668;BME280;42542;48.360;10.958;2022-11-14T10:35:56;96221.31;;;5.34;100.00
56668;BME280;42542;48.360;10.958;2022-11-14T10:39:48;96239.16;;;5.53;100.00
56668;BME280;42542;48.360;10.958;2022-11-14T10:47:02;96230.94;;;5.56;100.00
56668;BME280;42542;48.360;10.958;2022-11-14T10:50:27;96250.53;;;5.64;100.00
56668;BME280;42542;48.360;10.958;2022-11-14T10:57:17;96234.47;;;5.66;100.00
56668;BME280;42542;48.360;10.958;2022-11-14T11:00:38;96237.44;;;5.72;100.00
56668;BME280;42542;48.360;10.958;2022-11-14T11:04:18;96217.78;;;5.75;100.00
56668;BME280;42542;48.360;10.958;2022-11-14T11:07:44;96196.81;;;5.72;100.00
56668;BME280;42542;48.360;10.958;2022-11-14T11:11:58;96201.69;;;5.87;100.00
56668;BME280;42542;48.360;10.958;2022-11-14T11:15:27;96203.78;;;5.94;100.00
56668;BME280;42542;48.360;10.958;2022-11-14T11:18:51;96201.84;;;5.96;100.00
56668;BME280;42542;48.360;10.958;2022-11-14T11:22:35;96206.38;;;6.05;100.00
56668;BME280;42542;48.360;10.958;2022-11-14T11:26:05;96199.38;;;6.04;100.00
56668;BME280;42542;48.360;10.958;2022-11-14T11:29:27;96203.00;;;6.12;100.00
56668;BME280;42542;48.360;10.958;2022-11-14T11:32:47;96204.44;;;6.16;100.00
56668;BME280;42542;48.360;10.958;2022-11-14T11:36:17;96203.63;;;6.25;100.00
56668;BME280;42542;48.360;10.958;2022-11-14T11:39:45;96208.50;;;6.30;100.00
56668;BME280;42542;48.360;10.958;2022-11-14T11:43:15;96202.53;;;6.38;100.00
56668;BME280;42542;48.360;10.958;2022-11-14T11:47:00;96198.34;;;6.45;100.00
56668;BME280;42542;48.360;10.958;2022-11-14T11:50:22;96199.34;;;6.53;100.00
56668;BME280;42542;48.360;10.958;2022-11-14T11:53:50;96206.19;;;6.65;100.00
56668;BME280;42542;48.360;10.958;2022-11-14T11:57:17;96200.91;;;6.75;100.00
56668;BME280;42542;48.360;10.958;2022-11-14T12:00:43;96190.44;;;6.83;100.00
56668;BME280;42542;48.360;10.958;2022-11-14T12:04:06;96198.81;;;6.98;100.00
56668;BME280;42542;48.360;10.958;2022-11-14T12:07:40;96188.75;;;7.11;100.00
56668;BME280;42542;48.360;10.958;2022-11-14T12:11:07;96178.63;;;7.24;100.00
56668;BME280;42542;48.360;10.958;2022-11-14T12:14:42;96183.38;;;7.40;100.00
56668;BME280;42542;48.360;10.958;2022-11-14T12:25:36;96179.72;;;7.88;100.00
56668;BME280;42542;48.360;10.958;2022-11-14T12:32:57;96181.56;;;8.14;100.00
56668;BME280;42542;48.360;10.958;2022-11-14T12:36:29;96184.88;;;8.26;100.00
56668;BME280;42542;48.360;10.958;2022-11-14T12:40:11;96178.69;;;8.35;100.00
56668;BME280;42542;48.360;10.958;2022-11-14T12:43:39;96168.94;;;8.44;100.00
56668;BME280;42542;48.360;10.958;2022-11-14T12:50:48;96158.47;;;8.60;98.39
56668;BME280;42542;48.360;10.958;2022-11-14T12:55:02;96161.34;;;8.67;98.55
56668;BME280;42542;48.360;10.958;2022-11-14T13:02:31;96146.84;;;8.79;98.76
56668;BME280;42542;48.360;10.958;2022-11-14T13:06:21;96153.53;;;8.83;98.93
56668;BME280;42542;48.360;10.958;2022-11-14T13:09:56;96153.06;;;8.87;98.69
56668;BME280;42542;48.360;10.958;2022-11-14T13:13:18;96149.13;;;8.91;98.21
56668;BME280;42542;48.360;10.958;2022-11-14T13:17:29;96151.31;;;8.96;98.43
56668;BME280;42542;48.360;10.958;2022-11-14T13:21:19;96139.19;;;9.01;98.33
56668;BME280;42542;48.360;10.958;2022-11-14T13:31:57;96122.34;;;9.19;97.24
56668;BME280;42542;48.360;10.958;2022-11-14T13:35:39;96126.06;;;9.26;97.64
56668;BME280;42542;48.360;10.958;2022-11-14T13:43:00;96126.81;;;9.36;97.55
56668;BME280;42542;48.360;10.958;2022-11-14T13:53:37;96127.38;;;9.48;95.70
56668;BME280;42542;48.360;10.958;2022-11-14T14:04:19;96134.09;;;9.60;95.42
56668;BME280;42542;48.360;10.958;2022-11-14T14:07:49;96118.78;;;9.62;95.28
56668;BME280;42542;48.360;10.958;2022-11-14T14:18:43;96129.66;;;9.68;94.78
56668;BME280;42542;48.360;10.958;2022-11-14T14:22:19;96131.16;;;9.71;95.43
56668;BME280;42542;48.360;10.958;2022-11-14T14:25:58;96119.81;;;9.69;95.47
56668;BME280;42542;48.360;10.958;2022-11-14T14:29:27;96129.66;;;9.68;95.66
56668;BME280;42542;48.360;10.958;2022-11-14T14:36:25;96125.69;;;9.72;96.15
56668;BME280;42542;48.360;10.958;2022-11-14T14:40:04;96124.84;;;9.72;96.31
56668;BME280;42542;48.360;10.958;2022-11-14T14:43:31;96126.69;;;9.71;96.75
56668;BME280;42542;48.360;10.958;2022-11-14T14:46:52;96126.69;;;9.71;96.78
56668;BME280;42542;48.360;10.958;2022-11-14T14:53:35;96119.81;;;9.69;96.63
56668;BME280;42542;48.360;10.958;2022-11-14T14:56:57;96117.97;;;9.69;97.24
56668;BME280;42542;48.360;10.958;2022-11-14T15:00:24;96110.13;;;9.68;97.63
56668;BME280;42542;48.360;10.958;2022-11-14T15:03:51;96110.13;;;9.68;97.44
56668;BME280;42542;48.360;10.958;2022-11-14T15:07:19;96121.94;;;9.65;97.60
56668;BME280;42542;48.360;10.958;2022-11-14T15:10:40;96115.94;;;9.63;98.12
56668;BME280;42542;48.360;10.958;2022-11-14T15:14:01;96116.25;;;9.60;98.18
56668;BME280;42542;48.360;10.958;2022-11-14T15:17:22;96107.91;;;9.55;98.21
56668;BME280;42542;48.360;10.958;2022-11-14T15:20:42;96105.91;;;9.57;98.52
56668;BME280;42542;48.360;10.958;2022-11-14T15:24:15;96109.56;;;9.56;98.07
56668;BME280;42542;48.360;10.958;2022-11-14T15:27:44;96109.03;;;9.53;98.59
56668;BME280;42542;48.360;10.958;2022-11-14T15:31:11;96108.38;;;9.51;98.56
56668;BME280;42542;48.360;10.958;2022-11-14T15:34:37;96109.69;;;9.47;98.67
56668;BME280;42542;48.360;10.958;2022-11-14T15:38:18;96109.00;;;9.45;98.66
56668;BME280;42542;48.360;10.958;2022-11-14T15:45:39;96103.28;;;9.39;98.35
56668;BME280;42542;48.360;10.958;2022-11-14T15:49:15;96098.81;;;9.40;98.07
56668;BME280;42542;48.360;10.958;2022-11-14T15:52:45;96099.94;;;9.37;97.87
56668;BME280;42542;48.360;10.958;2022-11-14T15:56:10;96093.25;;;9.33;97.74
56668;BME280;42542;48.360;10.958;2022-11-14T15:59:30;96105.91;;;9.31;98.00
56668;BME280;42542;48.360;10.958;2022-11-14T16:02:55;96101.91;;;9.27;98.15
56668;BME280;42542;48.360;10.958;2022-11-14T16:06:16;96114.84;;;9.22;97.88
56668;BME280;42542;48.360;10.958;2022-11-14T16:13:24;96116.56;;;9.06;98.70
56668;BME280;42542;48.360;10.958;2022-11-14T16:16:45;96120.69;;;9.00;98.27
56668;BME280;42542;48.360;10.958;2022-11-14T16:20:09;96121.47;;;8.92;98.55
56668;BME280;42542;48.360;10.958;2022-11-14T16:23:29;96123.06;;;8.85;98.51
56668;BME280;42542;48.360;10.958;2022-11-14T16:26:50;96120.13;;;8.71;98.63
56668;BME280;42542;48.360;10.958;2022-11-14T16:30:15;96133.59;;;8.69;98.06
56668;BME280;42542;48.360;10.958;2022-11-14T16:33:36;96139.81;;;8.60;98.10
56668;BME280;42542;48.360;10.958;2022-11-14T16:36:58;96121.09;;;8.52;98.50
56668;BME280;42542;48.360;10.958;2022-11-14T16:40:23;96130.16;;;8.41;98.32
56668;BME280;42542;48.360;10.958;2022-11-14T16:43:45;96133.56;;;8.34;98.25
56668;BME280;42542;48.360;10.958;2022-11-14T16:47:06;96134.13;;;8.28;98.24
56668;BME280;42542;48.360;10.958;2022-11-14T16:50:26;96141.19;;;8.19;98.29
56668;BME280;42542;48.360;10.958;2022-11-14T16:53:47;96136.75;;;8.10;98.56
56668;BME280;42542;48.360;10.958;2022-11-14T16:57:07;96143.66;;;8.03;98.63
56668;BME280;42542;48.360;10.958;2022-11-14T17:00:27;96136.53;;;7.94;98.55
56668;BME280;42542;48.360;10.958;2022-11-14T17:03:48;96143.44;;;7.87;99.19
56668;BME280;42542;48.360;10.958;2022-11-14T17:07:09;96140.66;;;7.78;99.35
56668;BME280;42542;48.360;10.958;2022-11-14T17:10:29;96145.59;;;7.73;99.46
56668;BME280;42542;48.360;10.958;2022-11-14T17:13:50;96148.00;;;7.67;100.00
56668;BME280;42542;48.360;10.958;2022-11-14T17:17:10;96150.81;;;7.65;100.00
56668;BME280;42542;48.360;10.958;2022-11-14T17:20:30;96160.09;;;7.61;100.00
56668;BME280;42542;48.360;10.958;2022-11-14T17:23:59;96155.19;;;7.57;99.91
56668;BME280;42542;48.360;10.958;2022-11-14T17:27:20;96160.09;;;7.52;99.67
56668;BME280;42542;48.360;10.958;2022-11-14T17:30:42;96156.47;;;7.43;100.00
56668;BME280;42542;48.360;10.958;2022-11-14T17:34:02;96159.59;;;7.38;99.84
56668;BME280;42542;48.360;10.958;2022-11-14T17:37:32;96163.94;;;7.30;99.97
56668;BME280;42542;48.360;10.958;2022-11-14T17:40:56;96161.84;;;7.24;99.33
56668;BME280;42542;48.360;10.958;2022-11-14T17:44:17;96158.34;;;7.14;100.00
56668;BME280;42542;48.360;10.958;2022-11-14T17:47:38;96163.28;;;7.09;100.00
56668;BME280;42542;48.360;10.958;2022-11-14T17:51:05;96157.69;;;7.02;100.00
56668;BME280;42542;48.360;10.958;2022-11-14T17:54:28;96154.75;;;6.95;100.00
56668;BME280;42542;48.360;10.958;2022-11-14T17:57:48;96167.91;;;6.87;100.00
56668;BME280;42542;48.360;10.958;2022-11-14T18:01:10;96162.31;;;6.81;99.55
56668;BME280;42542;48.360;10.958;2022-11-14T18:04:31;96165.66;;;6.73;100.00
56668;BME280;42542;48.360;10.958;2022-11-14T18:07:51;96167.06;;;6.68;100.00
56668;BME280;42542;48.360;10.958;2022-11-14T18:11:13;96173.78;;;6.62;100.00
56668;BME280;42542;48.360;10.958;2022-11-14T18:14:33;96176.84;;;6.57;100.00
56668;BME280;42542;48.360;10.958;2022-11-14T18:17:54;96176.41;;;6.52;100.00
56668;BME280;42542;48.360;10.958;2022-11-14T18:21:20;96169.00;;;6.46;100.00
56668;BME280;42542;48.360;10.958;2022-11-14T18:24:40;96175.56;;;6.42;100.00
56668;BME280;42542;48.360;10.958;2022-11-14T18:28:06;96184.06;;;6.36;100.00
56668;BME280;42542;48.360;10.958;2022-11-14T18:31:26;96182.56;;;6.34;100.00
56668;BME280;42542;48.360;10.958;2022-11-14T18:34:46;96176.94;;;6.27;100.00
56668;BME280;42542;48.360;10.958;2022-11-14T18:38:06;96171.06;;;6.23;100.00
56668;BME280;42542;48.360;10.958;2022-11-14T18:41:26;96170.66;;;6.18;100.00
56668;BME280;42542;48.360;10.958;2022-11-14T18:48:18;96169.78;;;6.08;100.00
56668;BME280;42542;48.360;10.958;2022-11-14T18:51:38;96169.06;;;6.06;100.00
56668;BME280;42542;48.360;10.958;2022-11-14T18:55:01;96167.66;;;6.02;100.00
56668;BME280;42542;48.360;10.958;2022-11-14T18:58:23;96162.06;;;5.96;100.00
56668;BME280;42542;48.360;10.958;2022-11-14T19:01:43;96157.84;;;5.93;100.00
56668;BME280;42542;48.360;10.958;2022-11-14T19:05:03;96152.97;;;5.88;100.00
56668;BME280;42542;48.360;10.958;2022-11-14T19:08:23;96138.66;;;5.80;100.00
56668;BME280;42542;48.360;10.958;2022-11-14T19:11:43;96146.75;;;5.78;100.00
56668;BME280;42542;48.360;10.958;2022-11-14T19:15:22;96139.91;;;5.76;100.00
56668;BME280;42542;48.360;10.958;2022-11-14T19:18:42;96128.72;;;5.72;100.00
56668;BME280;42542;48.360;10.958;2022-11-14T19:22:02;96136.13;;;5.69;100.00
56668;BME280;42542;48.360;10.958;2022-11-14T19:25:23;96138.91;;;5.67;100.00
56668;BME280;42542;48.360;10.958;2022-11-14T19:28:43;96121.72;;;5.62;100.00